sensor_id;sensor_type;location;lat;lon;timestamp;temperature;humidity
49224;DHT22;35050;51.316;5.994;2023-09-30T00:01:01;13.60;99.90
49224;DHT22;35050;51.316;5.994;2023-09-30T00:03:27;13.70;99.90
49224;DHT22;35050;51.316;5.994;2023-09-30T00:05:53;13.80;99.90
49224;DHT22;35050;51.316;5.994;2023-09-30T00:08:19;13.80;99.90
49224;DHT22;35050;51.316;5.994;2023-09-30T00:10:45;13.80;99.90
49224;DHT22;35050;51.316;5.994;2023-09-30T00:13:12;13.90;99.90
49224;DHT22;35050;51.316;5.994;2023-09-30T00:15:38;13.90;99.90
49224;DHT22;35050;51.316;5.994;2023-09-30T00:18:04;13.90;99.90
49224;DHT22;35050;51.316;5.994;2023-09-30T00:20:30;13.90;99.90
49224;DHT22;35050;51.316;5.994;2023-09-30T00:22:56;14.00;99.90
49224;DHT22;35050;51.316;5.994;2023-09-30T00:25:22;14.00;99.90
49224;DHT22;35050;51.316;5.994;2023-09-30T00:27:48;14.10;99.90
49224;DHT22;35050;51.316;5.994;2023-09-30T00:30:14;14.00;99.90
49224;DHT22;35050;51.316;5.994;2023-09-30T00:32:39;14.10;99.90
49224;DHT22;35050;51.316;5.994;2023-09-30T00:35:06;14.10;99.90
49224;DHT22;35050;51.316;5.994;2023-09-30T00:37:39;14.00;99.90
49224;DHT22;35050;51.316;5.994;2023-09-30T00:40:06;14.00;99.90
49224;DHT22;35050;51.316;5.994;2023-09-30T00:42:32;14.10;99.90
49224;DHT22;35050;51.316;5.994;2023-09-30T00:44:58;14.00;99.90
49224;DHT22;35050;51.316;5.994;2023-09-30T00:47:23;14.00;99.90
49224;DHT22;35050;51.316;5.994;2023-09-30T00:49:50;14.10;99.90
49224;DHT22;35050;51.316;5.994;2023-09-30T00:52:17;14.10;99.90
49224;DHT22;35050;51.316;5.994;2023-09-30T00:54:43;14.00;99.90
49224;DHT22;35050;51.316;5.994;2023-09-30T00:57:10;14.00;99.90
49224;DHT22;35050;51.316;5.994;2023-09-30T00:59:36;14.10;99.90
49224;DHT22;35050;51.316;5.994;2023-09-30T01:02:03;14.10;99.90
49224;DHT22;35050;51.316;5.994;2023-09-30T01:04:30;14.10;99.90
49224;DHT22;35050;51.316;5.994;2023-09-30T01:06:56;14.10;99.90
49224;DHT22;35050;51.316;5.994;2023-09-30T01:09:25;14.10;99.90
49224;DHT22;35050;51.316;5.994;2023-09-30T01:11:51;14.20;99.90
49224;DHT22;35050;51.316;5.994;2023-09-30T01:14:27;14.10;99.90
49224;DHT22;35050;51.316;5.994;2023-09-30T01:16:54;14.20;99.90
49224;DHT22;35050;51.316;5.994;2023-09-30T01:19:19;14.20;99.90
49224;DHT22;35050;51.316;5.994;2023-09-30T01:21:45;14.10;99.90
49224;DHT22;35050;51.316;5.994;2023-09-30T01:24:17;14.20;99.90
49224;DHT22;35050;51.316;5.994;2023-09-30T01:26:42;14.10;99.90
49224;DHT22;35050;51.316;5.994;2023-09-30T01:29:09;14.20;99.90
49224;DHT22;35050;51.316;5.994;2023-09-30T01:31:38;14.10;99.90
49224;DHT22;35050;51.316;5.994;2023-09-30T01:34:04;14.10;99.90
49224;DHT22;35050;51.316;5.994;2023-09-30T01:36:30;14.00;99.90
49224;DHT22;35050;51.316;5.994;2023-09-30T01:38:56;14.00;99.90
49224;DHT22;35050;51.316;5.994;2023-09-30T01:41:22;14.00;99.90
49224;DHT22;35050;51.316;5.994;2023-09-30T01:43:48;14.00;99.90
49224;DHT22;35050;51.316;5.994;2023-09-30T01:46:14;14.00;99.90
49224;DHT22;35050;51.316;5.994;2023-09-30T01:48:40;13.90;99.90
49224;DHT22;35050;51.316;5.994;2023-09-30T01:51:06;14.00;99.90
49224;DHT22;35050;51.316;5.994;2023-09-30T01:53:32;13.90;99.90
49224;DHT22;35050;51.316;5.994;2023-09-30T01:55:58;13.90;99.90
49224;DHT22;35050;51.316;5.994;2023-09-30T01:58:23;13.90;99.90
49224;DHT22;35050;51.316;5.994;2023-09-30T02:00:50;13.90;99.90
49224;DHT22;35050;51.316;5.994;2023-09-30T02:03:16;13.80;99.90
49224;DHT22;35050;51.316;5.994;2023-09-30T02:05:42;13.80;99.90
49224;DHT22;35050;51.316;5.994;2023-09-30T02:08:08;13.70;99.90
49224;DHT22;35050;51.316;5.994;2023-09-30T02:10:34;13.70;99.90
49224;DHT22;35050;51.316;5.994;2023-09-30T02:13:00;13.70;99.90
49224;DHT22;35050;51.316;5.994;2023-09-30T02:15:25;13.70;99.90
49224;DHT22;35050;51.316;5.994;2023-09-30T02:17:51;13.70;99.90
49224;DHT22;35050;51.316;5.994;2023-09-30T02:20:17;13.70;99.90
49224;DHT22;35050;51.316;5.994;2023-09-30T02:22:47;13.70;99.90
49224;DHT22;35050;51.316;5.994;2023-09-30T02:25:13;13.70;99.90
49224;DHT22;35050;51.316;5.994;2023-09-30T02:27:40;13.70;99.90
49224;DHT22;35050;51.316;5.994;2023-09-30T02:30:08;13.70;99.90
49224;DHT22;35050;51.316;5.994;2023-09-30T02:32:33;13.70;99.90
49224;DHT22;35050;51.316;5.994;2023-09-30T02:34:59;13.60;99.90
49224;DHT22;35050;51.316;5.994;2023-09-30T02:37:24;13.70;99.90
49224;DHT22;35050;51.316;5.994;2023-09-30T02:39:51;13.60;99.90
49224;DHT22;35050;51.316;5.994;2023-09-30T02:42:17;13.60;99.90
49224;DHT22;35050;51.316;5.994;2023-09-30T02:44:42;13.70;99.90
49224;DHT22;35050;51.316;5.994;2023-09-30T02:47:08;13.70;99.90
49224;DHT22;35050;51.316;5.994;2023-09-30T02:49:34;13.70;99.90
49224;DHT22;35050;51.316;5.994;2023-09-30T02:52:00;13.70;99.90
49224;DHT22;35050;51.316;5.994;2023-09-30T02:54:26;13.60;99.90
49224;DHT22;35050;51.316;5.994;2023-09-30T02:56:52;13.60;99.90
49224;DHT22;35050;51.316;5.994;2023-09-30T02:59:20;13.60;99.90
49224;DHT22;35050;51.316;5.994;2023-09-30T03:01:47;13.60;99.90
49224;DHT22;35050;51.316;5.994;2023-09-30T03:04:13;13.60;99.90
49224;DHT22;35050;51.316;5.994;2023-09-30T03:06:39;13.60;99.90
49224;DHT22;35050;51.316;5.994;2023-09-30T03:09:05;13.50;99.90
49224;DHT22;35050;51.316;5.994;2023-09-30T03:11:31;13.50;99.90
49224;DHT22;35050;51.316;5.994;2023-09-30T03:13:57;13.60;99.90
49224;DHT22;35050;51.316;5.994;2023-09-30T03:16:24;13.60;99.90
49224;DHT22;35050;51.316;5.994;2023-09-30T03:18:50;13.50;99.90
49224;DHT22;35050;51.316;5.994;2023-09-30T03:21:16;13.50;99.90
49224;DHT22;35050;51.316;5.994;2023-09-30T03:23:43;13.50;99.90
49224;DHT22;35050;51.316;5.994;2023-09-30T03:26:09;13.50;99.90
49224;DHT22;35050;51.316;5.994;2023-09-30T03:28:39;13.50;99.90
49224;DHT22;35050;51.316;5.994;2023-09-30T03:31:07;13.60;99.90
49224;DHT22;35050;51.316;5.994;2023-09-30T03:33:34;13.60;99.90
49224;DHT22;35050;51.316;5.994;2023-09-30T03:36:00;13.60;99.90
49224;DHT22;35050;51.316;5.994;2023-09-30T03:38:26;13.50;99.90
49224;DHT22;35050;51.316;5.994;2023-09-30T03:40:52;13.50;99.90
49224;DHT22;35050;51.316;5.994;2023-09-30T03:43:20;13.60;99.90
49224;DHT22;35050;51.316;5.994;2023-09-30T03:45:46;13.60;99.90
49224;DHT22;35050;51.316;5.994;2023-09-30T03:48:12;13.50;99.90
49224;DHT22;35050;51.316;5.994;2023-09-30T03:50:38;13.50;99.90
49224;DHT22;35050;51.316;5.994;2023-09-30T03:53:05;13.50;99.90
49224;DHT22;35050;51.316;5.994;2023-09-30T03:55:32;13.40;99.90
49224;DHT22;35050;51.316;5.994;2023-09-30T03:57:59;13.40;99.90
49224;DHT22;35050;51.316;5.994;2023-09-30T04:00:24;13.50;99.90
49224;DHT22;35050;51.316;5.994;2023-09-30T04:02:50;13.40;99.90
49224;DHT22;35050;51.316;5.994;2023-09-30T04:05:21;13.40;99.90
49224;DHT22;35050;51.316;5.994;2023-09-30T04:07:55;13.40;99.90
49224;DHT22;35050;51.316;5.994;2023-09-30T04:10:20;13.40;99.90
49224;DHT22;35050;51.316;5.994;2023-09-30T04:12:48;13.40;99.90
49224;DHT22;35050;51.316;5.994;2023-09-30T04:15:14;13.40;99.90
49224;DHT22;35050;51.316;5.994;2023-09-30T04:17:39;13.30;99.90
49224;DHT22;35050;51.316;5.994;2023-09-30T04:20:06;13.30;99.90
49224;DHT22;35050;51.316;5.994;2023-09-30T04:22:35;13.40;99.90
49224;DHT22;35050;51.316;5.994;2023-09-30T04:25:01;13.30;99.90
49224;DHT22;35050;51.316;5.994;2023-09-30T04:27:27;13.20;99.90
49224;DHT22;35050;51.316;5.994;2023-09-30T04:29:53;13.30;99.90
49224;DHT22;35050;51.316;5.994;2023-09-30T04:32:19;13.20;99.90
49224;DHT22;35050;51.316;5.994;2023-09-30T04:34:45;13.20;99.90
49224;DHT22;35050;51.316;5.994;2023-09-30T04:37:15;13.20;99.90
49224;DHT22;35050;51.316;5.994;2023-09-30T04:39:40;13.20;99.90
49224;DHT22;35050;51.316;5.994;2023-09-30T04:42:06;13.10;99.90
49224;DHT22;35050;51.316;5.994;2023-09-30T04:44:36;13.10;99.90
49224;DHT22;35050;51.316;5.994;2023-09-30T04:47:03;13.00;99.90
49224;DHT22;35050;51.316;5.994;2023-09-30T04:49:30;13.10;99.90
49224;DHT22;35050;51.316;5.994;2023-09-30T04:51:56;13.00;99.90
49224;DHT22;35050;51.316;5.994;2023-09-30T04:54:22;13.00;99.90
49224;DHT22;35050;51.316;5.994;2023-09-30T04:56:47;13.10;99.90
49224;DHT22;35050;51.316;5.994;2023-09-30T04:59:13;13.10;99.90
49224;DHT22;35050;51.316;5.994;2023-09-30T05:01:39;13.00;99.90
49224;DHT22;35050;51.316;5.994;2023-09-30T05:04:05;13.10;99.90
49224;DHT22;35050;51.316;5.994;2023-09-30T05:06:32;13.10;99.90
49224;DHT22;35050;51.316;5.994;2023-09-30T05:08:58;13.10;99.90
49224;DHT22;35050;51.316;5.994;2023-09-30T05:11:24;13.10;99.90
49224;DHT22;35050;51.316;5.994;2023-09-30T05:13:50;13.10;99.90
49224;DHT22;35050;51.316;5.994;2023-09-30T05:16:17;13.10;99.90
49224;DHT22;35050;51.316;5.994;2023-09-30T05:18:43;13.10;99.90
49224;DHT22;35050;51.316;5.994;2023-09-30T05:21:09;13.20;99.90
49224;DHT22;35050;51.316;5.994;2023-09-30T05:23:36;13.10;99.90
49224;DHT22;35050;51.316;5.994;2023-09-30T05:26:02;13.10;99.90
49224;DHT22;35050;51.316;5.994;2023-09-30T05:28:27;13.10;99.90
49224;DHT22;35050;51.316;5.994;2023-09-30T05:30:53;13.10;99.90
49224;DHT22;35050;51.316;5.994;2023-09-30T05:33:19;13.10;99.90
49224;DHT22;35050;51.316;5.994;2023-09-30T05:35:44;13.10;99.90
49224;DHT22;35050;51.316;5.994;2023-09-30T05:38:10;13.10;99.90
49224;DHT22;35050;51.316;5.994;2023-09-30T05:40:36;13.10;99.90
49224;DHT22;35050;51.316;5.994;2023-09-30T05:43:02;13.10;99.90
49224;DHT22;35050;51.316;5.994;2023-09-30T05:45:31;13.10;99.90
49224;DHT22;35050;51.316;5.994;2023-09-30T05:48:01;13.10;99.90
49224;DHT22;35050;51.316;5.994;2023-09-30T05:50:29;13.10;99.90
49224;DHT22;35050;51.316;5.994;2023-09-30T05:52:55;13.30;99.90
49224;DHT22;35050;51.316;5.994;2023-09-30T05:55:21;13.30;99.90
49224;DHT22;35050;51.316;5.994;2023-09-30T05:57:48;13.20;99.90
49224;DHT22;35050;51.316;5.994;2023-09-30T06:00:15;13.20;99.90
49224;DHT22;35050;51.316;5.994;2023-09-30T06:02:59;13.20;99.90
49224;DHT22;35050;51.316;5.994;2023-09-30T06:05:25;13.10;99.90
49224;DHT22;35050;51.316;5.994;2023-09-30T06:07:52;13.20;99.90
49224;DHT22;35050;51.316;5.994;2023-09-30T06:10:19;13.20;99.90
49224;DHT22;35050;51.316;5.994;2023-09-30T06:12:49;13.20;99.90
49224;DHT22;35050;51.316;5.994;2023-09-30T06:15:15;13.10;99.90
49224;DHT22;35050;51.316;5.994;2023-09-30T06:17:47;13.20;99.90
49224;DHT22;35050;51.316;5.994;2023-09-30T06:20:13;13.20;99.90
49224;DHT22;35050;51.316;5.994;2023-09-30T06:22:43;13.30;99.90
49224;DHT22;35050;51.316;5.994;2023-09-30T06:25:15;13.30;99.90
49224;DHT22;35050;51.316;5.994;2023-09-30T06:27:44;13.30;99.90
49224;DHT22;35050;51.316;5.994;2023-09-30T06:30:11;13.30;99.90
49224;DHT22;35050;51.316;5.994;2023-09-30T06:32:37;13.30;99.90
49224;DHT22;35050;51.316;5.994;2023-09-30T06:35:03;13.40;99.90
49224;DHT22;35050;51.316;5.994;2023-09-30T06:37:31;13.40;99.90
49224;DHT22;35050;51.316;5.994;2023-09-30T06:39:57;13.40;99.90
49224;DHT22;35050;51.316;5.994;2023-09-30T06:42:24;13.30;99.90
49224;DHT22;35050;51.316;5.994;2023-09-30T06:44:50;13.40;99.90
49224;DHT22;35050;51.316;5.994;2023-09-30T06:47:15;13.40;99.90
49224;DHT22;35050;51.316;5.994;2023-09-30T06:49:41;13.40;99.90
49224;DHT22;35050;51.316;5.994;2023-09-30T06:52:07;13.40;99.90
49224;DHT22;35050;51.316;5.994;2023-09-30T06:54:33;13.50;99.90
49224;DHT22;35050;51.316;5.994;2023-09-30T06:56:59;13.60;99.90
49224;DHT22;35050;51.316;5.994;2023-09-30T06:59:25;13.60;99.90
49224;DHT22;35050;51.316;5.994;2023-09-30T07:01:51;13.60;99.90
49224;DHT22;35050;51.316;5.994;2023-09-30T07:04:17;13.70;99.90
49224;DHT22;35050;51.316;5.994;2023-09-30T07:06:43;13.70;99.90
49224;DHT22;35050;51.316;5.994;2023-09-30T07:09:09;13.80;99.90
49224;DHT22;35050;51.316;5.994;2023-09-30T07:11:37;13.80;99.90
49224;DHT22;35050;51.316;5.994;2023-09-30T07:14:03;13.90;99.90
49224;DHT22;35050;51.316;5.994;2023-09-30T07:16:29;13.80;99.90
49224;DHT22;35050;51.316;5.994;2023-09-30T07:18:54;14.00;99.90
49224;DHT22;35050;51.316;5.994;2023-09-30T07:21:20;13.90;99.90
49224;DHT22;35050;51.316;5.994;2023-09-30T07:23:46;14.00;99.90
49224;DHT22;35050;51.316;5.994;2023-09-30T07:26:13;14.20;99.90
49224;DHT22;35050;51.316;5.994;2023-09-30T07:28:40;14.10;99.90
49224;DHT22;35050;51.316;5.994;2023-09-30T07:31:05;14.70;99.90
49224;DHT22;35050;51.316;5.994;2023-09-30T07:33:32;14.90;99.90
49224;DHT22;35050;51.316;5.994;2023-09-30T07:35:57;14.70;99.90
49224;DHT22;35050;51.316;5.994;2023-09-30T07:38:23;14.60;99.90
49224;DHT22;35050;51.316;5.994;2023-09-30T07:40:49;14.50;99.90
49224;DHT22;35050;51.316;5.994;2023-09-30T07:43:15;14.50;99.90
49224;DHT22;35050;51.316;5.994;2023-09-30T07:45:40;14.50;99.90
49224;DHT22;35050;51.316;5.994;2023-09-30T07:48:09;14.50;99.90
49224;DHT22;35050;51.316;5.994;2023-09-30T07:50:35;14.60;99.90
49224;DHT22;35050;51.316;5.994;2023-09-30T07:53:01;14.60;99.90
49224;DHT22;35050;51.316;5.994;2023-09-30T07:55:27;14.60;99.90
49224;DHT22;35050;51.316;5.994;2023-09-30T07:57:52;14.70;99.90
49224;DHT22;35050;51.316;5.994;2023-09-30T08:00:18;14.80;99.90
49224;DHT22;35050;51.316;5.994;2023-09-30T08:02:46;15.40;99.90
49224;DHT22;35050;51.316;5.994;2023-09-30T08:05:12;15.20;99.90
49224;DHT22;35050;51.316;5.994;2023-09-30T08:07:38;15.10;99.90
49224;DHT22;35050;51.316;5.994;2023-09-30T08:10:05;15.20;99.90
49224;DHT22;35050;51.316;5.994;2023-09-30T08:12:32;15.30;99.90
49224;DHT22;35050;51.316;5.994;2023-09-30T08:14:58;15.30;99.90
49224;DHT22;35050;51.316;5.994;2023-09-30T08:17:23;15.60;99.90
49224;DHT22;35050;51.316;5.994;2023-09-30T08:19:49;15.70;99.90
49224;DHT22;35050;51.316;5.994;2023-09-30T08:22:15;15.80;99.90
49224;DHT22;35050;51.316;5.994;2023-09-30T08:24:40;15.70;99.90
49224;DHT22;35050;51.316;5.994;2023-09-30T08:27:06;15.70;99.90
49224;DHT22;35050;51.316;5.994;2023-09-30T08:29:35;15.80;99.90
49224;DHT22;35050;51.316;5.994;2023-09-30T08:32:03;15.90;99.90
49224;DHT22;35050;51.316;5.994;2023-09-30T08:34:29;16.00;99.90
49224;DHT22;35050;51.316;5.994;2023-09-30T08:36:55;16.10;99.90
49224;DHT22;35050;51.316;5.994;2023-09-30T08:39:22;16.10;99.90
49224;DHT22;35050;51.316;5.994;2023-09-30T08:41:49;16.30;99.90
49224;DHT22;35050;51.316;5.994;2023-09-30T08:44:15;16.50;99.90
49224;DHT22;35050;51.316;5.994;2023-09-30T08:46:41;16.60;99.90
49224;DHT22;35050;51.316;5.994;2023-09-30T08:49:07;16.90;99.90
49224;DHT22;35050;51.316;5.994;2023-09-30T08:51:35;17.00;99.90
49224;DHT22;35050;51.316;5.994;2023-09-30T08:54:01;17.20;99.90
49224;DHT22;35050;51.316;5.994;2023-09-30T08:56:30;17.30;99.90
49224;DHT22;35050;51.316;5.994;2023-09-30T08:58:59;17.60;99.90
49224;DHT22;35050;51.316;5.994;2023-09-30T09:01:27;17.60;99.90
49224;DHT22;35050;51.316;5.994;2023-09-30T09:03:53;17.70;99.90
49224;DHT22;35050;51.316;5.994;2023-09-30T09:06:20;17.90;99.90
49224;DHT22;35050;51.316;5.994;2023-09-30T09:08:46;17.90;99.90
49224;DHT22;35050;51.316;5.994;2023-09-30T09:11:12;18.20;99.90
49224;DHT22;35050;51.316;5.994;2023-09-30T09:13:53;18.50;99.90
49224;DHT22;35050;51.316;5.994;2023-09-30T09:16:23;18.60;99.90
49224;DHT22;35050;51.316;5.994;2023-09-30T09:18:49;18.30;99.90
49224;DHT22;35050;51.316;5.994;2023-09-30T09:21:20;18.50;99.90
49224;DHT22;35050;51.316;5.994;2023-09-30T09:23:48;18.50;99.90
49224;DHT22;35050;51.316;5.994;2023-09-30T09:26:26;18.70;99.90
49224;DHT22;35050;51.316;5.994;2023-09-30T09:28:59;18.80;99.90
49224;DHT22;35050;51.316;5.994;2023-09-30T09:31:28;18.90;99.90
49224;DHT22;35050;51.316;5.994;2023-09-30T09:33:54;19.20;99.90
49224;DHT22;35050;51.316;5.994;2023-09-30T09:36:21;19.30;99.90
49224;DHT22;35050;51.316;5.994;2023-09-30T09:38:49;19.30;99.90
49224;DHT22;35050;51.316;5.994;2023-09-30T09:41:15;19.40;99.90
49224;DHT22;35050;51.316;5.994;2023-09-30T09:43:42;19.90;99.90
49224;DHT22;35050;51.316;5.994;2023-09-30T09:46:09;19.90;99.90
49224;DHT22;35050;51.316;5.994;2023-09-30T09:48:36;20.00;99.90
49224;DHT22;35050;51.316;5.994;2023-09-30T09:51:03;20.20;99.90
49224;DHT22;35050;51.316;5.994;2023-09-30T09:53:30;20.50;99.90
49224;DHT22;35050;51.316;5.994;2023-09-30T09:55:59;20.50;99.90
49224;DHT22;35050;51.316;5.994;2023-09-30T09:58:27;20.70;99.90
49224;DHT22;35050;51.316;5.994;2023-09-30T10:00:57;20.70;99.90
49224;DHT22;35050;51.316;5.994;2023-09-30T10:03:23;20.80;99.90
49224;DHT22;35050;51.316;5.994;2023-09-30T10:05:49;20.80;99.90
49224;DHT22;35050;51.316;5.994;2023-09-30T10:08:16;20.70;99.90
49224;DHT22;35050;51.316;5.994;2023-09-30T10:10:44;20.40;99.90
49224;DHT22;35050;51.316;5.994;2023-09-30T10:16:50;21.00;99.90
49224;DHT22;35050;51.316;5.994;2023-09-30T10:19:19;20.70;99.90
49224;DHT22;35050;51.316;5.994;2023-09-30T10:24:46;20.20;99.90
49224;DHT22;35050;51.316;5.994;2023-09-30T10:30:06;20.60;99.90
49224;DHT22;35050;51.316;5.994;2023-09-30T10:35:20;20.30;99.90
49224;DHT22;35050;51.316;5.994;2023-09-30T10:37:47;20.80;99.90
49224;DHT22;35050;51.316;5.994;2023-09-30T10:40:30;21.20;99.90
49224;DHT22;35050;51.316;5.994;2023-09-30T10:42:58;21.60;99.90
49224;DHT22;35050;51.316;5.994;2023-09-30T10:51:18;22.50;99.90
49224;DHT22;35050;51.316;5.994;2023-09-30T10:53:51;22.70;99.90
49224;DHT22;35050;51.316;5.994;2023-09-30T10:56:20;23.10;99.90
49224;DHT22;35050;51.316;5.994;2023-09-30T10:58:48;23.10;99.90
49224;DHT22;35050;51.316;5.994;2023-09-30T11:01:21;23.20;99.90
49224;DHT22;35050;51.316;5.994;2023-09-30T11:03:48;23.10;99.90
49224;DHT22;35050;51.316;5.994;2023-09-30T11:06:19;22.90;99.90
49224;DHT22;35050;51.316;5.994;2023-09-30T11:08:57;23.40;99.90
49224;DHT22;35050;51.316;5.994;2023-09-30T11:14:29;23.60;99.90
49224;DHT22;35050;51.316;5.994;2023-09-30T11:16:57;24.10;99.90
49224;DHT22;35050;51.316;5.994;2023-09-30T11:19:23;23.60;99.90
49224;DHT22;35050;51.316;5.994;2023-09-30T11:21:54;23.70;99.90
49224;DHT22;35050;51.316;5.994;2023-09-30T11:24:21;24.10;99.90
49224;DHT22;35050;51.316;5.994;2023-09-30T11:26:47;24.20;99.90
49224;DHT22;35050;51.316;5.994;2023-09-30T11:29:15;24.30;99.90
49224;DHT22;35050;51.316;5.994;2023-09-30T11:31:46;23.90;99.90
49224;DHT22;35050;51.316;5.994;2023-09-30T11:34:12;23.70;99.90
49224;DHT22;35050;51.316;5.994;2023-09-30T11:36:40;23.90;99.90
49224;DHT22;35050;51.316;5.994;2023-09-30T11:39:09;23.80;99.90
49224;DHT22;35050;51.316;5.994;2023-09-30T11:41:35;23.70;99.90
49224;DHT22;35050;51.316;5.994;2023-09-30T11:44:11;23.60;99.90
49224;DHT22;35050;51.316;5.994;2023-09-30T11:51:54;24.70;99.90
49224;DHT22;35050;51.316;5.994;2023-09-30T11:54:20;24.50;99.90
49224;DHT22;35050;51.316;5.994;2023-09-30T11:56:47;24.30;99.90
49224;DHT22;35050;51.316;5.994;2023-09-30T11:59:13;24.40;99.90
49224;DHT22;35050;51.316;5.994;2023-09-30T12:01:39;24.30;99.90
49224;DHT22;35050;51.316;5.994;2023-09-30T12:04:05;24.00;99.90
49224;DHT22;35050;51.316;5.994;2023-09-30T12:06:31;23.70;99.90
49224;DHT22;35050;51.316;5.994;2023-09-30T12:08:59;23.80;99.90
49224;DHT22;35050;51.316;5.994;2023-09-30T12:11:25;23.60;99.90
49224;DHT22;35050;51.316;5.994;2023-09-30T12:13:51;23.00;99.90
49224;DHT22;35050;51.316;5.994;2023-09-30T12:16:17;22.60;99.90
49224;DHT22;35050;51.316;5.994;2023-09-30T12:18:44;22.50;99.90
49224;DHT22;35050;51.316;5.994;2023-09-30T12:21:11;22.60;99.90
49224;DHT22;35050;51.316;5.994;2023-09-30T12:23:37;23.10;99.90
49224;DHT22;35050;51.316;5.994;2023-09-30T12:26:03;23.40;99.90
49224;DHT22;35050;51.316;5.994;2023-09-30T12:28:32;23.50;99.90
49224;DHT22;35050;51.316;5.994;2023-09-30T12:30:59;23.40;99.90
49224;DHT22;35050;51.316;5.994;2023-09-30T12:33:28;23.70;99.90
49224;DHT22;35050;51.316;5.994;2023-09-30T12:35:53;23.80;99.90
49224;DHT22;35050;51.316;5.994;2023-09-30T12:38:19;23.90;99.90
49224;DHT22;35050;51.316;5.994;2023-09-30T12:40:45;24.00;99.90
49224;DHT22;35050;51.316;5.994;2023-09-30T12:43:10;24.10;99.90
49224;DHT22;35050;51.316;5.994;2023-09-30T12:45:36;24.40;99.90
49224;DHT22;35050;51.316;5.994;2023-09-30T12:48:04;24.50;99.90
49224;DHT22;35050;51.316;5.994;2023-09-30T12:50:30;24.20;99.30
49224;DHT22;35050;51.316;5.994;2023-09-30T12:52:55;24.10;99.50
49224;DHT22;35050;51.316;5.994;2023-09-30T12:55:21;23.90;99.50
49224;DHT22;35050;51.316;5.994;2023-09-30T12:57:46;24.10;99.90
49224;DHT22;35050;51.316;5.994;2023-09-30T13:00:13;24.10;99.90
49224;DHT22;35050;51.316;5.994;2023-09-30T13:02:41;24.00;99.90
49224;DHT22;35050;51.316;5.994;2023-09-30T13:05:07;23.90;98.90
49224;DHT22;35050;51.316;5.994;2023-09-30T13:07:33;24.10;98.90
49224;DHT22;35050;51.316;5.994;2023-09-30T13:09:58;24.20;98.40
49224;DHT22;35050;51.316;5.994;2023-09-30T13:12:27;24.00;98.00
49224;DHT22;35050;51.316;5.994;2023-09-30T13:14:53;23.90;98.40
49224;DHT22;35050;51.316;5.994;2023-09-30T13:17:22;24.00;99.00
49224;DHT22;35050;51.316;5.994;2023-09-30T13:19:49;23.50;99.90
49224;DHT22;35050;51.316;5.994;2023-09-30T13:22:15;23.40;99.90
49224;DHT22;35050;51.316;5.994;2023-09-30T13:24:42;23.50;99.90
49224;DHT22;35050;51.316;5.994;2023-09-30T13:27:08;23.40;99.90
49224;DHT22;35050;51.316;5.994;2023-09-30T13:29:34;23.40;99.90
49224;DHT22;35050;51.316;5.994;2023-09-30T13:31:59;23.00;99.90
49224;DHT22;35050;51.316;5.994;2023-09-30T13:34:25;23.20;99.90
49224;DHT22;35050;51.316;5.994;2023-09-30T13:36:51;23.20;99.90
49224;DHT22;35050;51.316;5.994;2023-09-30T13:39:16;23.10;99.90
49224;DHT22;35050;51.316;5.994;2023-09-30T13:41:43;23.10;99.90
49224;DHT22;35050;51.316;5.994;2023-09-30T13:44:09;23.00;99.90
49224;DHT22;35050;51.316;5.994;2023-09-30T13:46:36;23.10;99.90
49224;DHT22;35050;51.316;5.994;2023-09-30T13:49:01;23.10;99.90
49224;DHT22;35050;51.316;5.994;2023-09-30T13:51:27;22.70;99.90
49224;DHT22;35050;51.316;5.994;2023-09-30T13:53:53;22.60;99.90
49224;DHT22;35050;51.316;5.994;2023-09-30T13:56:19;22.70;99.90
49224;DHT22;35050;51.316;5.994;2023-09-30T13:58:45;22.80;99.90
49224;DHT22;35050;51.316;5.994;2023-09-30T14:01:13;22.80;99.90
49224;DHT22;35050;51.316;5.994;2023-09-30T14:03:39;22.50;99.90
49224;DHT22;35050;51.316;5.994;2023-09-30T14:06:12;22.50;99.90
49224;DHT22;35050;51.316;5.994;2023-09-30T14:08:38;22.20;99.90
49224;DHT22;35050;51.316;5.994;2023-09-30T14:11:04;22.10;99.90
49224;DHT22;35050;51.316;5.994;2023-09-30T14:13:30;22.30;99.90
49224;DHT22;35050;51.316;5.994;2023-09-30T14:15:56;22.10;99.90
49224;DHT22;35050;51.316;5.994;2023-09-30T14:18:21;22.10;99.90
49224;DHT22;35050;51.316;5.994;2023-09-30T14:20:47;22.20;99.90
49224;DHT22;35050;51.316;5.994;2023-09-30T14:23:13;22.20;99.90
49224;DHT22;35050;51.316;5.994;2023-09-30T14:25:39;22.10;99.90
49224;DHT22;35050;51.316;5.994;2023-09-30T14:28:08;22.20;99.90
49224;DHT22;35050;51.316;5.994;2023-09-30T14:30:33;22.30;99.90
49224;DHT22;35050;51.316;5.994;2023-09-30T14:32:59;22.30;99.90
49224;DHT22;35050;51.316;5.994;2023-09-30T14:35:25;22.20;99.90
49224;DHT22;35050;51.316;5.994;2023-09-30T14:37:51;22.10;99.90
49224;DHT22;35050;51.316;5.994;2023-09-30T14:40:19;22.20;99.90
49224;DHT22;35050;51.316;5.994;2023-09-30T14:42:46;22.20;99.90
49224;DHT22;35050;51.316;5.994;2023-09-30T14:45:11;21.80;99.90
49224;DHT22;35050;51.316;5.994;2023-09-30T14:47:38;21.70;99.90
49224;DHT22;35050;51.316;5.994;2023-09-30T14:50:07;21.80;99.90
49224;DHT22;35050;51.316;5.994;2023-09-30T14:52:33;21.70;99.90
49224;DHT22;35050;51.316;5.994;2023-09-30T14:54:59;21.80;99.90
49224;DHT22;35050;51.316;5.994;2023-09-30T14:57:25;21.90;99.90
49224;DHT22;35050;51.316;5.994;2023-09-30T14:59:51;21.70;99.90
49224;DHT22;35050;51.316;5.994;2023-09-30T15:02:16;21.70;99.90
49224;DHT22;35050;51.316;5.994;2023-09-30T15:04:42;21.50;99.90
49224;DHT22;35050;51.316;5.994;2023-09-30T15:07:08;21.50;99.90
49224;DHT22;35050;51.316;5.994;2023-09-30T15:09:37;21.50;99.90
49224;DHT22;35050;51.316;5.994;2023-09-30T15:12:03;21.40;99.90
49224;DHT22;35050;51.316;5.994;2023-09-30T15:14:29;21.40;99.90
49224;DHT22;35050;51.316;5.994;2023-09-30T15:16:54;21.30;99.90
49224;DHT22;35050;51.316;5.994;2023-09-30T15:19:21;21.40;99.90
49224;DHT22;35050;51.316;5.994;2023-09-30T15:21:47;21.40;99.90
49224;DHT22;35050;51.316;5.994;2023-09-30T15:24:12;21.60;99.90
49224;DHT22;35050;51.316;5.994;2023-09-30T15:26:38;21.50;99.90
49224;DHT22;35050;51.316;5.994;2023-09-30T15:29:03;21.40;99.90
49224;DHT22;35050;51.316;5.994;2023-09-30T15:31:30;21.50;99.90
49224;DHT22;35050;51.316;5.994;2023-09-30T15:33:56;21.40;99.90
49224;DHT22;35050;51.316;5.994;2023-09-30T15:36:22;21.40;99.90
49224;DHT22;35050;51.316;5.994;2023-09-30T15:38:48;21.60;99.90
49224;DHT22;35050;51.316;5.994;2023-09-30T15:41:14;21.50;99.90
49224;DHT22;35050;51.316;5.994;2023-09-30T15:43:40;21.50;99.90
49224;DHT22;35050;51.316;5.994;2023-09-30T15:46:09;21.30;99.90
49224;DHT22;35050;51.316;5.994;2023-09-30T15:48:35;21.00;99.90
49224;DHT22;35050;51.316;5.994;2023-09-30T15:51:01;20.80;99.90
49224;DHT22;35050;51.316;5.994;2023-09-30T15:53:26;20.70;99.90